Time;durP1;ratioP1;P1;durP2;ratioP2;P2;SDS_P1;SDS_P2;PMS_P1;PMS_P2;Temp;Humidity;BMP_temperature;BMP_pressure;BME280_temperature;BME280_humidity;BME280_pressure;Samples;Min_cycle;Max_cycle;Signal;HPM_P1;HPM_P2
2023/11/29 00:00:22;;;;;;;;;;;;;;;9.91;53.73;99792.09;4967730;27;102433;-64
2023/11/29 00:02:48;;;;;;;;;;;;;;;9.90;53.18;99790.47;4964799;27;98410;-67
2023/11/29 00:05:15;;;;;;;;;;;;;;;9.90;53.46;99786.97;4971074;27;118874;-65
2023/11/29 00:07:43;;;;;;;;;;;;;;;9.89;53.58;99791.56;4968613;27;98123;-68
2023/11/29 00:10:09;;;;;;;;;;;;;;;9.90;53.51;99786.97;4957033;27;98364;-68
2023/11/29 00:12:36;;;;;;;;;;;;;;;9.89;53.13;99790.75;4952934;27;99398;-64
2023/11/29 00:15:03;;;;;;;;;;;;;;;9.89;53.43;99785.38;4957480;27;99323;-68
2023/11/29 00:17:29;;;;;;;;;;;;;;;9.88;53.26;99776.50;4963707;27;98052;-64
2023/11/29 00:19:56;;;;;;;;;;;;;;;9.88;53.44;99781.88;4956535;27;98386;-68
2023/11/29 00:22:22;;;;;;;;;;;;;;;9.89;53.47;99774.59;4958754;27;100166;-64
2023/11/29 00:24:48;;;;;;;;;;;;;;;9.89;53.10;99769.22;4964360;27;98039;-64
2023/11/29 00:27:14;;;;;;;;;;;;;;;9.88;53.58;99773.81;4978070;27;97992;-68
2023/11/29 00:29:41;;;;;;;;;;;;;;;9.88;53.66;99771.13;4972890;27;98210;-68
2023/11/29 00:32:06;;;;;;;;;;;;;;;9.88;53.55;99768.41;4964511;27;98094;-68
2023/11/29 00:34:32;;;;;;;;;;;;;;;9.89;53.52;99759.25;4965475;27;129835;-68
2023/11/29 00:36:59;;;;;;;;;;;;;;;9.87;53.36;99756.06;4959715;27;126993;-68
2023/11/29 00:39:25;;;;;;;;;;;;;;;9.89;53.68;99761.16;4973292;27;100303;-68
2023/11/29 00:41:51;;;;;;;;;;;;;;;9.87;53.42;99763.34;4962157;27;100137;-68
2023/11/29 00:44:18;;;;;;;;;;;;;;;9.87;53.12;99766.81;4963613;27;120718;-64
2023/11/29 00:46:44;;;;;;;;;;;;;;;9.87;53.16;99761.44;4957006;27;98206;-64
2023/11/29 00:49:10;;;;;;;;;;;;;;;9.87;53.05;99757.94;4954585;27;98179;-68
2023/11/29 00:51:35;;;;;;;;;;;;;;;9.87;53.14;99756.06;4971063;27;114972;-64
2023/11/29 00:54:02;;;;;;;;;;;;;;;9.86;53.17;99754.44;4966891;27;115036;-64
2023/11/29 00:56:28;;;;;;;;;;;;;;;9.87;53.40;99747.97;4956335;27;110259;-64
2023/11/29 00:58:54;;;;;;;;;;;;;;;9.86;53.68;99754.44;4964655;27;98058;-68
2023/11/29 01:01:19;;;;;;;;;;;;;;;9.86;53.06;99757.13;4969283;27;100558;-68
2023/11/29 01:03:45;;;;;;;;;;;;;;;9.86;53.64;99759.81;4971457;27;128928;-64
2023/11/29 01:06:11;;;;;;;;;;;;;;;9.87;53.46;99757.94;4961161;27;98297;-64
2023/11/29 01:08:37;;;;;;;;;;;;;;;9.86;53.04;99765.19;4956709;27;122032;-65
2023/11/29 01:11:04;;;;;;;;;;;;;;;9.86;53.62;99757.13;4958816;27;126890;-67
2023/11/29 01:13:30;;;;;;;;;;;;;;;9.84;53.44;99756.59;4967417;27;98291;-69
2023/11/29 01:15:56;;;;;;;;;;;;;;;9.86;53.40;99748.25;4955221;27;124603;-64
2023/11/29 01:18:22;;;;;;;;;;;;;;;9.86;53.28;99751.72;4985375;27;98005;-64
2023/11/29 01:20:48;;;;;;;;;;;;;;;9.86;53.67;99756.31;4991282;27;127836;-68
2023/11/29 01:23:14;;;;;;;;;;;;;;;9.87;53.09;99749.88;4985476;27;126763;-68
2023/11/29 01:25:40;;;;;;;;;;;;;;;9.86;53.03;99749.03;4987736;27;98090;-68
2023/11/29 01:28:07;;;;;;;;;;;;;;;9.86;53.16;99749.03;4973035;27;98138;-68
2023/11/29 01:30:33;;;;;;;;;;;;;;;9.87;53.23;99749.88;4988807;27;98184;-68
2023/11/29 01:32:59;;;;;;;;;;;;;;;9.87;53.47;99752.56;4973932;27;119645;-68
2023/11/29 01:35:25;;;;;;;;;;;;;;;9.87;53.42;99747.19;4982279;27;98491;-65
2023/11/29 01:37:51;;;;;;;;;;;;;;;9.86;53.58;99743.66;4977008;27;121890;-65
2023/11/29 01:40:17;;;;;;;;;;;;;;;9.86;52.99;99745.53;4989493;27;128049;-68
2023/11/29 01:42:43;;;;;;;;;;;;;;;9.87;53.13;99749.88;4979789;27;130320;-68
2023/11/29 01:45:09;;;;;;;;;;;;;;;9.87;53.47;99749.88;4973254;27;121802;-67
2023/11/29 01:47:37;;;;;;;;;;;;;;;9.87;53.63;99752.56;4991951;27;98159;-68
2023/11/29 01:50:04;;;;;;;;;;;;;;;9.87;52.99;99749.88;4983189;27;98158;-64
2023/11/29 01:52:30;;;;;;;;;;;;;;;9.86;53.22;99750.94;4999209;27;98189;-68
2023/11/29 01:54:56;;;;;;;;;;;;;;;9.86;53.21;99748.25;4964870;27;98664;-68
2023/11/29 01:57:22;;;;;;;;;;;;;;;9.86;53.26;99750.94;4974044;27;99576;-65
2023/11/29 01:59:48;;;;;;;;;;;;;;;9.86;53.39;99748.25;4981116;27;99979;-68
2023/11/29 02:02:14;;;;;;;;;;;;;;;9.84;53.39;99745.84;4975185;27;127487;-64
2023/11/29 02:04:40;;;;;;;;;;;;;;;9.86;53.39;99742.84;4975264;27;126444;-68
2023/11/29 02:07:06;;;;;;;;;;;;;;;9.85;53.06;99747.44;4988542;27;97797;-65
2023/11/29 02:09:32;;;;;;;;;;;;;;;9.84;53.02;99741.25;4992615;27;125205;-65
2023/11/29 02:11:59;;;;;;;;;;;;;;;9.83;53.61;99730.78;4976401;27;98160;-68
2023/11/29 02:14:25;;;;;;;;;;;;;;;9.81;52.95;99733.72;4986575;27;98153;-68
2023/11/29 02:16:52;;;;;;;;;;;;;;;9.84;53.26;99732.38;4972362;27;98224;-69
2023/11/29 02:19:17;;;;;;;;;;;;;;;9.89;53.05;99734.22;4967349;27;98322;-65
2023/11/29 02:21:44;;;;;;;;;;;;;;;9.95;53.39;99725.03;4968826;27;97790;-69
2023/11/29 02:24:15;;;;;;;;;;;;;;;10.00;53.30;99722.31;4973996;27;98111;-65
2023/11/29 02:26:41;;;;;;;;;;;;;;;10.05;53.25;99714.97;4992303;27;100017;-69
2023/11/29 02:29:07;;;;;;;;;;;;;;;10.08;53.24;99714.41;4986969;27;98183;-69
2023/11/29 02:31:33;;;;;;;;;;;;;;;10.12;53.40;99705.78;4976046;27;98240;-69
2023/11/29 02:34:01;;;;;;;;;;;;;;;10.14;53.40;99707.13;4986270;27;98044;-65
2023/11/29 02:36:27;;;;;;;;;;;;;;;10.17;53.69;99706.53;4952877;27;98354;-69
2023/11/29 02:38:53;;;;;;;;;;;;;;;10.18;53.13;99697.38;4970530;27;119747;-65
2023/11/29 02:41:19;;;;;;;;;;;;;;;10.18;53.46;99697.38;4982770;27;99889;-68
2023/11/29 02:43:45;;;;;;;;;;;;;;;10.19;53.10;99692.81;4975742;27;98191;-64
2023/11/29 02:46:11;;;;;;;;;;;;;;;10.17;53.34;99693.06;4984343;27;99332;-64
2023/11/29 02:48:37;;;;;;;;;;;;;;;10.18;53.38;99694.69;4993142;27;115156;-66
2023/11/29 02:51:03;;;;;;;;;;;;;;;10.17;53.54;99689.56;4968352;27;128722;-68
2023/11/29 02:53:29;;;;;;;;;;;;;;;10.16;53.17;99688.78;4987430;27;98666;-65
2023/11/29 02:55:55;;;;;;;;;;;;;;;10.15;53.55;99686.38;4972210;27;108645;-68
2023/11/29 02:58:21;;;;;;;;;;;;;;;10.14;53.40;99693.66;4976339;27;98081;-69
2023/11/29 03:00:47;;;;;;;;;;;;;;;10.13;53.19;99683.16;4971566;27;129318;-70
2023/11/29 03:03:13;;;;;;;;;;;;;;;10.12;53.57;99681.53;4969191;27;98308;-65
2023/11/29 03:05:40;;;;;;;;;;;;;;;10.10;53.16;99679.16;4990206;27;97848;-69
2023/11/29 03:08:07;;;;;;;;;;;;;;;10.08;53.78;99684.81;4991746;27;98741;-68
2023/11/29 03:10:34;;;;;;;;;;;;;;;10.07;53.28;99685.09;4970077;27;98056;-68
2023/11/29 03:13:00;;;;;;;;;;;;;;;10.05;53.55;99679.97;4983996;27;98135;-65
2023/11/29 03:15:26;;;;;;;;;;;;;;;10.04;53.69;99675.69;4973798;27;122821;-65
2023/11/29 03:17:52;;;;;;;;;;;;;;;10.02;53.35;99677.88;4982676;27;122491;-69
2023/11/29 03:20:18;;;;;;;;;;;;;;;10.01;53.37;99675.44;4975530;27;99516;-69
2023/11/29 03:22:44;;;;;;;;;;;;;;;9.98;53.17;99668.75;4982856;27;117534;-65
2023/11/29 03:25:10;;;;;;;;;;;;;;;9.97;53.24;99663.63;4971848;27;124977;-69
2023/11/29 03:27:36;;;;;;;;;;;;;;;9.95;53.22;99655.84;4990638;27;129314;-69
2023/11/29 03:30:02;;;;;;;;;;;;;;;9.94;53.49;99656.94;4981256;27;97879;-69
2023/11/29 03:32:28;;;;;;;;;;;;;;;9.92;53.72;99653.72;4973133;27;105498;-69
2023/11/29 03:34:54;;;;;;;;;;;;;;;9.90;53.60;99655.88;4975728;27;122170;-65
2023/11/29 03:37:21;;;;;;;;;;;;;;;9.89;53.74;99648.88;4982516;27;97946;-69
2023/11/29 03:39:46;;;;;;;;;;;;;;;9.86;53.79;99644.06;4988890;27;98473;-65
2023/11/29 03:42:12;;;;;;;;;;;;;;;9.85;53.14;99650.53;4982741;27;124861;-69
2023/11/29 03:44:39;;;;;;;;;;;;;;;9.84;53.46;99647.03;4978605;27;98324;-69
2023/11/29 03:47:05;;;;;;;;;;;;;;;9.80;53.12;99637.94;4975883;27;98266;-69
2023/11/29 03:49:31;;;;;;;;;;;;;;;9.79;53.36;99639.03;4979865;27;99786;-69
2023/11/29 03:51:57;;;;;;;;;;;;;;;9.76;53.72;99639.56;4972857;27;129298;-64
2023/11/29 03:54:23;;;;;;;;;;;;;;;9.76;53.06;99631.50;4970585;27;98190;-64
2023/11/29 03:56:49;;;;;;;;;;;;;;;9.73;53.12;99632.06;4988385;27;98508;-64
2023/11/29 03:59:15;;;;;;;;;;;;;;;9.71;53.53;99628.84;4969791;27;99117;-64
2023/11/29 04:01:41;;;;;;;;;;;;;;;9.69;53.48;99631.00;4978045;27;98015;-69
2023/11/29 04:04:07;;;;;;;;;;;;;;;9.68;53.39;99631.31;4989387;27;101300;-70
2023/11/29 04:06:33;;;;;;;;;;;;;;;9.67;53.56;99635.06;4995342;27;116637;-69
2023/11/29 04:08:59;;;;;;;;;;;;;;;9.65;52.94;99632.66;4974721;27;127571;-69
2023/11/29 04:11:25;;;;;;;;;;;;;;;9.64;53.42;99630.25;4993096;27;97779;-69
2023/11/29 04:13:51;;;;;;;;;;;;;;;9.61;53.62;99615.47;4971886;27;99447;-65
2023/11/29 04:16:24;;;;;;;;;;;;;;;9.58;53.18;99619.50;4995114;27;130606;-69
2023/11/29 04:18:51;;;;;;;;;;;;;;;9.58;53.05;99619.50;4995480;27;98914;-69
2023/11/29 04:21:28;;;;;;;;;;;;;;;9.56;53.10;99613.63;4989652;27;99161;-65
2023/11/29 04:23:54;;;;;;;;;;;;;;;9.56;53.65;99612.81;4980163;27;116396;-69
2023/11/29 04:26:36;;;;;;;;;;;;;;;9.54;52.95;99613.09;4977327;27;99515;-69
2023/11/29 04:29:06;;;;;;;;;;;;;;;9.53;53.66;99611.50;4993364;27;99232;-65
2023/11/29 04:31:33;;;;;;;;;;;;;;;9.52;53.48;99601.03;4997565;27;99675;-69
2023/11/29 04:33:59;;;;;;;;;;;;;;;9.50;53.28;99589.72;4979878;27;98287;-69
2023/11/29 04:36:25;;;;;;;;;;;;;;;9.49;53.16;99594.31;4978565;27;99049;-65
2023/11/29 04:38:54;;;;;;;;;;;;;;;9.47;53.35;99595.66;4997510;27;114076;-69
2023/11/29 04:41:23;;;;;;;;;;;;;;;9.45;53.49;99585.19;4993014;27;99643;-65
2023/11/29 04:43:49;;;;;;;;;;;;;;;9.44;53.51;99588.97;4978975;27;98367;-64
2023/11/29 04:46:15;;;;;;;;;;;;;;;9.43;53.54;99583.84;4977812;27;105902;-65
2023/11/29 04:48:43;;;;;;;;;;;;;;;9.42;52.99;99584.94;4980289;27;98950;-69
2023/11/29 04:51:09;;;;;;;;;;;;;;;9.39;53.87;99583.63;4978816;27;99225;-64
2023/11/29 04:53:36;;;;;;;;;;;;;;;9.39;53.63;99580.91;4974687;27;113593;-64
2023/11/29 04:56:02;;;;;;;;;;;;;;;9.36;53.43;99581.50;4995649;27;99344;-65
2023/11/29 04:58:28;;;;;;;;;;;;;;;9.36;53.24;99581.50;4990863;27;97984;-65
2023/11/29 05:00:55;;;;;;;;;;;;;;;9.35;53.79;99577.19;4982892;27;97950;-68
2023/11/29 05:03:21;;;;;;;;;;;;;;;9.34;53.37;99570.22;4960995;27;98381;-64
2023/11/29 05:05:47;;;;;;;;;;;;;;;9.32;53.24;99561.63;4979553;27;98071;-65
2023/11/29 05:08:13;;;;;;;;;;;;;;;9.31;53.16;99562.69;4990880;27;98417;-69
2023/11/29 05:10:39;;;;;;;;;;;;;;;9.30;53.16;99566.47;4982544;27;97879;-69
2023/11/29 05:13:06;;;;;;;;;;;;;;;9.27;53.52;99572.41;4979128;27;100149;-65
2023/11/29 05:15:34;;;;;;;;;;;;;;;9.27;53.45;99575.09;4999738;27;99629;-64
2023/11/29 05:18:03;;;;;;;;;;;;;;;9.26;53.38;99571.59;4977452;27;98263;-68
2023/11/29 05:20:29;;;;;;;;;;;;;;;9.25;53.13;99567.31;4978272;27;98843;-69
2023/11/29 05:22:55;;;;;;;;;;;;;;;9.23;53.11;99569.47;4994597;27;121457;-64
2023/11/29 05:25:21;;;;;;;;;;;;;;;9.23;53.29;99568.66;4978614;27;99592;-64
2023/11/29 05:27:47;;;;;;;;;;;;;;;9.22;53.81;99557.13;4980593;27;127307;-64
2023/11/29 05:30:13;;;;;;;;;;;;;;;9.21;53.47;99566.28;4998050;27;97819;-69
2023/11/29 05:32:39;;;;;;;;;;;;;;;9.21;52.81;99568.16;4978582;27;98452;-69
2023/11/29 05:35:06;;;;;;;;;;;;;;;9.20;53.16;99561.19;4985365;27;97939;-64
2023/11/29 05:37:32;;;;;;;;;;;;;;;9.18;53.18;99550.69;4978565;27;99503;-64
2023/11/29 05:39:58;;;;;;;;;;;;;;;9.18;53.16;99560.66;5002432;27;99602;-69
2023/11/29 05:42:24;;;;;;;;;;;;;;;9.16;52.76;99555.56;4973414;27;98147;-69
2023/11/29 05:44:53;;;;;;;;;;;;;;;9.16;52.81;99546.69;4976751;27;99497;-64
2023/11/29 05:47:19;;;;;;;;;;;;;;;9.14;53.30;99544.28;4987064;27;99627;-64
2023/11/29 05:49:45;;;;;;;;;;;;;;;9.13;53.72;99545.34;4985235;27;127706;-69
2023/11/29 05:52:11;;;;;;;;;;;;;;;9.12;53.78;99538.38;4984733;27;97979;-69
2023/11/29 05:54:37;;;;;;;;;;;;;;;9.12;53.34;99537.56;5007190;27;98340;-68
2023/11/29 05:57:03;;;;;;;;;;;;;;;9.10;53.60;99533.28;4980907;27;129806;-69
2023/11/29 05:59:29;;;;;;;;;;;;;;;9.09;53.08;99534.34;4980710;27;98057;-65
2023/11/29 06:01:56;;;;;;;;;;;;;;;9.07;53.50;99525.75;4995610;27;98378;-64
2023/11/29 06:04:21;;;;;;;;;;;;;;;9.07;53.08;99524.97;4979061;27;98846;-68
2023/11/29 06:06:48;;;;;;;;;;;;;;;9.07;52.93;99525.75;4964958;27;125331;-68
2023/11/29 06:09:14;;;;;;;;;;;;;;;9.06;53.25;99516.09;5005012;27;98352;-68
2023/11/29 06:11:41;;;;;;;;;;;;;;;9.05;52.90;99511.81;4982320;27;98130;-68
2023/11/29 06:14:07;;;;;;;;;;;;;;;9.04;52.80;99512.09;4981387;27;98681;-69
2023/11/29 06:16:33;;;;;;;;;;;;;;;9.03;53.28;99513.97;4992996;27;105365;-68
2023/11/29 06:18:59;;;;;;;;;;;;;;;9.03;53.06;99519.34;4998803;27;98186;-64
2023/11/29 06:21:25;;;;;;;;;;;;;;;9.01;53.05;99516.13;4996674;27;98116;-64
2023/11/29 06:23:51;;;;;;;;;;;;;;;9.00;52.89;99521.78;4985238;27;98348;-64
2023/11/29 06:26:21;;;;;;;;;;;;;;;9.00;53.66;99524.47;5007592;27;98381;-68
2023/11/29 06:28:47;;;;;;;;;;;;;;;9.00;52.51;99522.59;4977591;27;100308;-68
2023/11/29 06:31:13;;;;;;;;;;;;;;;9.00;53.16;99521.78;4977948;27;97884;-70
2023/11/29 06:33:39;;;;;;;;;;;;;;;9.00;53.73;99516.41;4977439;27;125890;-65
2023/11/29 06:36:05;;;;;;;;;;;;;;;9.00;53.68;99511.03;4990724;27;127729;-65
2023/11/29 06:38:31;;;;;;;;;;;;;;;9.00;53.51;99513.72;4994076;27;98678;-65
2023/11/29 06:40:58;;;;;;;;;;;;;;;9.01;52.99;99518.03;4989433;27;97817;-65
2023/11/29 06:43:24;;;;;;;;;;;;;;;9.01;53.33;99507.28;4969255;27;99182;-69
2023/11/29 06:45:50;;;;;;;;;;;;;;;9.01;52.96;99518.03;4979568;27;98175;-69
2023/11/29 06:48:18;;;;;;;;;;;;;;;9.00;53.00;99511.84;4979409;27;98617;-64
2023/11/29 06:50:45;;;;;;;;;;;;;;;9.01;53.29;99512.66;4979280;27;97939;-69
2023/11/29 06:53:10;;;;;;;;;;;;;;;9.02;52.96;99522.31;5001691;27;99434;-68
2023/11/29 06:55:37;;;;;;;;;;;;;;;9.02;53.21;99522.31;4997119;27;112368;-64
2023/11/29 06:58:03;;;;;;;;;;;;;;;9.02;52.93;99517.72;4990636;27;98713;-69
2023/11/29 07:00:29;;;;;;;;;;;;;;;9.05;52.93;99521.75;4992384;27;123149;-64
2023/11/29 07:02:55;;;;;;;;;;;;;;;9.03;53.39;99521.22;4973642;27;129434;-64
2023/11/29 07:05:21;;;;;;;;;;;;;;;9.03;53.04;99513.16;4983683;27;128353;-68
2023/11/29 07:07:48;;;;;;;;;;;;;;;9.05;53.00;99517.19;4983979;27;106946;-68
2023/11/29 07:10:14;;;;;;;;;;;;;;;9.05;52.80;99525.25;4989056;27;98680;-69
2023/11/29 07:12:41;;;;;;;;;;;;;;;9.07;53.07;99517.69;4979763;27;98203;-64
2023/11/29 07:15:07;;;;;;;;;;;;;;;9.07;53.48;99524.97;4978073;27;98345;-69
2023/11/29 07:17:33;;;;;;;;;;;;;;;9.09;52.89;99520.13;4989088;27;110468;-69
2023/11/29 07:20:00;;;;;;;;;;;;;;;9.11;53.31;99523.31;4975608;27;98695;-64
2023/11/29 07:22:26;;;;;;;;;;;;;;;9.12;52.97;99527.63;4996683;27;98824;-68
2023/11/29 07:24:52;;;;;;;;;;;;;;;9.14;53.15;99524.66;4976783;27;105444;-64
2023/11/29 07:27:19;;;;;;;;;;;;;;;9.15;52.78;99537.00;4987685;27;98148;-64
2023/11/29 07:29:45;;;;;;;;;;;;;;;9.16;53.43;99526.00;4972132;27;98573;-64
2023/11/29 07:32:13;;;;;;;;;;;;;;;9.19;53.00;99535.34;4979570;27;98269;-64
2023/11/29 07:34:39;;;;;;;;;;;;;;;9.22;52.90;99524.84;4986735;27;98632;-64
2023/11/29 07:37:05;;;;;;;;;;;;;;;9.25;53.45;99523.50;4978861;27;100105;-69
2023/11/29 07:39:31;;;;;;;;;;;;;;;9.27;53.35;99524.00;4997584;27;97796;-64
2023/11/29 07:41:58;;;;;;;;;;;;;;;9.31;52.54;99525.88;4970115;27;113382;-64
2023/11/29 07:44:24;;;;;;;;;;;;;;;9.34;52.93;99524.50;4983346;27;98610;-69
2023/11/29 07:46:51;;;;;;;;;;;;;;;9.37;52.70;99518.56;4987950;27;100232;-69
2023/11/29 07:49:17;;;;;;;;;;;;;;;9.41;52.97;99521.47;4983548;27;98305;-69
2023/11/29 07:51:45;;;;;;;;;;;;;;;9.44;53.08;99519.03;4976342;27;97943;-70
2023/11/29 07:54:12;;;;;;;;;;;;;;;9.46;52.65;99527.59;4995712;27;98956;-69
2023/11/29 07:56:41;;;;;;;;;;;;;;;9.48;53.34;99520.06;4985014;27;98275;-68
2023/11/29 07:59:09;;;;;;;;;;;;;;;9.49;52.41;99518.97;4985343;27;98442;-65
2023/11/29 08:01:35;;;;;;;;;;;;;;;9.49;53.06;99527.06;4980100;27;98014;-64
2023/11/29 08:04:01;;;;;;;;;;;;;;;9.49;53.07;99524.34;4983154;27;102408;-64
2023/11/29 08:06:28;;;;;;;;;;;;;;;9.49;53.04;99518.97;4973307;27;99383;-68
2023/11/29 08:08:57;;;;;;;;;;;;;;;9.49;52.60;99518.19;5002412;27;98646;-65
2023/11/29 08:11:23;;;;;;;;;;;;;;;9.49;53.07;99523.56;4990416;27;97854;-69
2023/11/29 08:13:49;;;;;;;;;;;;;;;9.49;52.56;99518.19;4972664;27;102556;-64
2023/11/29 08:16:15;;;;;;;;;;;;;;;9.50;53.23;99506.31;4995634;27;100660;-64
2023/11/29 08:18:41;;;;;;;;;;;;;;;9.50;52.98;99515.19;4982451;27;110359;-68
2023/11/29 08:21:08;;;;;;;;;;;;;;;9.50;52.73;99515.19;4982692;27;122235;-68
2023/11/29 08:23:34;;;;;;;;;;;;;;;9.51;53.21;99516.81;4981510;27;97937;-68
2023/11/29 08:26:00;;;;;;;;;;;;;;;9.53;52.95;99508.47;4995444;27;98031;-68
2023/11/29 08:28:26;;;;;;;;;;;;;;;9.54;52.84;99510.84;4978726;27;101513;-64
2023/11/29 08:30:52;;;;;;;;;;;;;;;9.54;52.58;99513.53;4996151;27;128077;-64
2023/11/29 08:33:18;;;;;;;;;;;;;;;9.56;53.11;99511.38;4997426;27;100287;-64
2023/11/29 08:35:45;;;;;;;;;;;;;;;9.58;52.69;99500.34;4985002;27;108776;-64
2023/11/29 08:38:11;;;;;;;;;;;;;;;9.59;52.96;99497.38;4990717;27;101797;-65
2023/11/29 08:40:37;;;;;;;;;;;;;;;9.60;52.77;99500.88;4985096;27;113449;-64
2023/11/29 08:43:05;;;;;;;;;;;;;;;9.61;52.77;99497.06;4981914;27;121360;-68
2023/11/29 08:45:31;;;;;;;;;;;;;;;9.63;52.81;99496.78;5002726;27;99910;-67
2023/11/29 08:47:57;;;;;;;;;;;;;;;9.63;52.69;99499.47;4980634;27;103337;-64
2023/11/29 08:50:23;;;;;;;;;;;;;;;9.66;52.68;99505.09;4984917;27;105299;-69
2023/11/29 08:52:51;;;;;;;;;;;;;;;9.67;52.88;99508.59;4980808;27;98108;-65
2023/11/29 08:55:17;;;;;;;;;;;;;;;9.68;52.86;99505.63;4984200;27;98496;-68
2023/11/29 08:57:43;;;;;;;;;;;;;;;9.68;52.68;99502.94;4979613;27;98049;-64
2023/11/29 09:00:09;;;;;;;;;;;;;;;9.71;53.17;99502.38;4987925;27;98003;-68
2023/11/29 09:02:36;;;;;;;;;;;;;;;9.72;52.83;99489.72;4995072;27;115774;-68
2023/11/29 09:05:05;;;;;;;;;;;;;;;9.76;52.52;99501.50;4979663;27;97950;-68
2023/11/29 09:07:31;;;;;;;;;;;;;;;9.78;53.01;99502.00;4982925;27;98233;-64
2023/11/29 09:09:58;;;;;;;;;;;;;;;9.79;52.53;99496.38;4985746;27;114139;-65
2023/11/29 09:12:25;;;;;;;;;;;;;;;9.81;53.09;99499.56;4983675;27;97985;-65
2023/11/29 09:14:55;;;;;;;;;;;;;;;9.82;53.00;99494.97;4980600;27;98855;-65
2023/11/29 09:17:24;;;;;;;;;;;;;;;9.86;52.39;99493.31;4989803;27;98007;-68
2023/11/29 09:19:50;;;;;;;;;;;;;;;9.87;52.54;99486.06;4995671;27;97971;-65
2023/11/29 09:22:17;;;;;;;;;;;;;;;9.89;53.09;99487.38;4980813;27;98095;-65
2023/11/29 09:24:43;;;;;;;;;;;;;;;9.90;52.45;99480.88;4984197;27;97925;-68
2023/11/29 09:27:11;;;;;;;;;;;;;;;9.92;52.86;99475.22;4981881;27;98439;-69
2023/11/29 09:29:38;;;;;;;;;;;;;;;9.95;52.68;99482.75;4983877;27;100016;-65
2023/11/29 09:32:04;;;;;;;;;;;;;;;9.98;53.11;99479.47;4980247;27;98203;-65
2023/11/29 09:34:30;;;;;;;;;;;;;;;10.00;52.44;99470.00;4981986;27;98375;-68
2023/11/29 09:36:59;;;;;;;;;;;;;;;10.05;52.59;99469.94;4992442;27;107182;-65
2023/11/29 09:39:28;;;;;;;;;;;;;;;10.09;52.70;99462.09;4980324;27;98747;-69
2023/11/29 09:41:55;;;;;;;;;;;;;;;10.15;52.57;99468.25;4990838;27;98485;-68
2023/11/29 09:44:21;;;;;;;;;;;;;;;10.18;53.06;99465.78;4983557;27;119435;-65
2023/11/29 09:46:47;;;;;;;;;;;;;;;10.22;52.99;99457.91;4976189;27;121835;-65
2023/11/29 09:49:13;;;;;;;;;;;;;;;10.26;52.79;99462.47;4977738;27;128903;-65
2023/11/29 09:51:39;;;;;;;;;;;;;;;10.32;52.77;99457.81;5016167;27;127351;-69
2023/11/29 09:54:05;;;;;;;;;;;;;;;10.37;52.86;99449.66;4999136;27;127281;-69
2023/11/29 09:56:31;;;;;;;;;;;;;;;10.41;52.46;99447.97;5002792;27;98460;-65
2023/11/29 09:58:57;;;;;;;;;;;;;;;10.46;52.80;99444.44;4963675;27;112464;-65
2023/11/29 10:01:23;;;;;;;;;;;;;;;10.49;52.86;99438.44;4983859;27;98339;-65
2023/11/29 10:04:05;;;;;;;;;;;;;;;10.54;52.30;99433.78;4987214;27;98241;-69
2023/11/29 10:06:32;;;;;;;;;;;;;;;10.59;52.61;99435.59;4984807;27;98010;-65
2023/11/29 10:08:58;;;;;;;;;;;;;;;10.63;52.62;99425.06;4995845;27;98367;-65
2023/11/29 10:11:25;;;;;;;;;;;;;;;10.66;52.65;99425.28;4990689;27;108715;-69
2023/11/29 10:13:52;;;;;;;;;;;;;;;10.72;52.65;99428.69;4987760;27;98194;-65
2023/11/29 10:16:20;;;;;;;;;;;;;;;10.76;52.73;99427.00;4990620;27;98006;-69
2023/11/29 10:18:47;;;;;;;;;;;;;;;10.78;52.66;99422.91;4970385;27;98820;-65
2023/11/29 10:21:12;;;;;;;;;;;;;;;10.82;52.40;99415.84;4971917;27;112949;-69
2023/11/29 10:23:44;;;;;;;;;;;;;;;10.87;52.61;99414.97;4953446;28;98045;-69
2023/11/29 10:26:10;;;;;;;;;;;;;;;10.90;52.60;99410.88;4957878;27;98293;-69
2023/11/29 10:28:36;;;;;;;;;;;;;;;10.91;52.34;99413.28;4974879;27;127352;-65
2023/11/29 10:31:03;;;;;;;;;;;;;;;10.93;52.78;99410.31;4980411;27;97765;-68
2023/11/29 10:33:32;;;;;;;;;;;;;;;10.95;52.40;99413.50;4999841;27;97855;-65
2023/11/29 10:36:02;;;;;;;;;;;;;;;10.97;52.49;99419.41;4976224;27;112198;-66
2023/11/29 10:38:29;;;;;;;;;;;;;;;11.00;52.73;99408.84;4972698;27;98664;-69
2023/11/29 10:40:59;;;;;;;;;;;;;;;11.05;52.50;99402.53;4952755;28;98180;-69
2023/11/29 10:43:26;;;;;;;;;;;;;;;11.10;52.60;99401.66;4953531;27;98788;-65
2023/11/29 10:45:56;;;;;;;;;;;;;;;11.17;52.51;99396.69;4965529;27;104010;-65
2023/11/29 10:48:24;;;;;;;;;;;;;;;11.27;52.48;99397.28;4957408;27;99320;-65
2023/11/29 10:50:50;;;;;;;;;;;;;;;11.45;52.05;99397.53;4977591;27;98108;-69
2023/11/29 10:53:19;;;;;;;;;;;;;;;11.62;52.21;99396.91;4957333;27;98001;-65
2023/11/29 10:55:45;;;;;;;;;;;;;;;11.75;51.97;99383.44;4987893;27;98290;-68
2023/11/29 10:58:33;;;;;;;;;;;;;;;11.83;52.05;99381.97;4974574;27;99460;-65
2023/11/29 11:01:00;;;;;;;;;;;;;;;11.86;51.76;99384.03;4963151;27;97859;-65
2023/11/29 11:03:45;;;;;;;;;;;;;;;11.85;52.30;99387.03;4965624;27;98344;-66
2023/11/29 11:06:23;;;;;;;;;;;;;;;11.80;52.29;99382.53;4967463;27;98883;-68
2023/11/29 11:08:55;;;;;;;;;;;;;;;11.80;52.37;99380.63;4987593;27;99445;-65
2023/11/29 11:11:42;;;;;;;;;;;;;;;11.84;52.41;99380.84;4990075;27;99434;-65
2023/11/29 11:14:23;;;;;;;;;;;;;;;11.96;52.21;99380.34;4976991;27;98364;-68
2023/11/29 11:16:55;;;;;;;;;;;;;;;12.07;52.17;99367.44;4966859;27;98508;-68
2023/11/29 11:19:34;;;;;;;;;;;;;;;12.14;52.01;99373.19;4980587;27;110970;-65
2023/11/29 11:22:04;;;;;;;;;;;;;;;12.18;52.08;99379.59;4964592;27;116929;-65
2023/11/29 11:24:52;;;;;;;;;;;;;;;12.22;52.15;99377.88;4955716;27;105774;-68
2023/11/29 11:27:19;;;;;;;;;;;;;;;12.24;52.09;99379.19;4996497;27;103039;-65
2023/11/29 11:29:45;;;;;;;;;;;;;;;12.23;52.20;99376.78;4972586;27;104815;-65
2023/11/29 11:32:11;;;;;;;;;;;;;;;12.19;52.25;99376.59;4957295;27;98261;-65
2023/11/29 11:34:38;;;;;;;;;;;;;;;12.20;52.21;99377.41;4956819;27;112659;-65
2023/11/29 11:37:05;;;;;;;;;;;;;;;12.19;52.40;99373.91;4948893;27;121861;-68
2023/11/29 11:39:31;;;;;;;;;;;;;;;12.18;52.49;99369.59;4976671;27;98115;-68
2023/11/29 11:41:57;;;;;;;;;;;;;;;12.14;52.55;99360.47;4957184;27;121600;-65
2023/11/29 11:44:23;;;;;;;;;;;;;;;12.14;52.45;99362.38;4958748;27;126883;-64
2023/11/29 11:46:51;;;;;;;;;;;;;;;12.13;52.72;99361.59;4958087;27;104950;-68
2023/11/29 11:49:17;;;;;;;;;;;;;;;12.13;52.40;99355.41;4969821;27;98068;-65
2023/11/29 11:51:43;;;;;;;;;;;;;;;12.12;52.61;99354.59;4970487;27;117635;-67
2023/11/29 11:54:09;;;;;;;;;;;;;;;12.11;52.44;99360.31;4953497;27;117901;-65
2023/11/29 11:56:35;;;;;;;;;;;;;;;12.10;52.50;99356.00;4956978;27;114483;-68
2023/11/29 11:59:01;;;;;;;;;;;;;;;12.09;52.34;99357.91;4981243;27;98729;-65
2023/11/29 12:01:28;;;;;;;;;;;;;;;12.11;52.60;99365.72;4955977;27;98382;-68
2023/11/29 12:03:55;;;;;;;;;;;;;;;12.12;52.64;99351.91;4967680;27;98676;-65
2023/11/29 12:06:21;;;;;;;;;;;;;;;12.14;52.66;99354.28;4951558;27;115577;-68
2023/11/29 12:08:47;;;;;;;;;;;;;;;12.12;52.65;99351.91;4963426;27;99544;-65
2023/11/29 12:11:13;;;;;;;;;;;;;;;12.12;52.57;99351.09;4934920;27;118353;-65
2023/11/29 12:13:39;;;;;;;;;;;;;;;12.08;52.73;99353.59;4934032;27;99711;-65
2023/11/29 12:16:15;;;;;;;;;;;;;;;12.08;52.71;99360.91;4946498;27;98004;-68
2023/11/29 12:18:41;;;;;;;;;;;;;;;12.05;52.65;99362.31;4973981;27;98682;-68
2023/11/29 12:21:07;;;;;;;;;;;;;;;12.04;52.66;99360.72;4960711;27;98246;-65
2023/11/29 12:23:33;;;;;;;;;;;;;;;12.05;52.49;99354.22;4960225;27;123252;-65
2023/11/29 12:26:00;;;;;;;;;;;;;;;12.07;52.80;99356.63;4961696;27;115804;-68
2023/11/29 12:28:28;;;;;;;;;;;;;;;12.07;52.55;99351.22;4960302;27;98136;-68
2023/11/29 12:30:58;;;;;;;;;;;;;;;12.09;52.48;99352.50;4955250;27;98044;-65
2023/11/29 12:33:24;;;;;;;;;;;;;;;12.12;52.62;99345.69;4978982;27;98477;-68
2023/11/29 12:35:50;;;;;;;;;;;;;;;12.15;52.50;99347.78;4958602;27;122411;-68
2023/11/29 12:38:17;;;;;;;;;;;;;;;12.16;52.43;99350.19;4967845;27;120906;-68
2023/11/29 12:40:43;;;;;;;;;;;;;;;12.18;52.42;99341.75;4962066;27;98696;-65
2023/11/29 12:43:08;;;;;;;;;;;;;;;12.17;52.48;99337.47;4984287;27;103551;-68
2023/11/29 12:45:34;;;;;;;;;;;;;;;12.15;52.71;99335.09;4966061;27;121457;-65
2023/11/29 12:48:01;;;;;;;;;;;;;;;12.12;52.85;99332.97;4958785;27;99346;-65